Time;durP1;ratioP1;P1;durP2;ratioP2;P2;SDS_P1;SDS_P2;PMS_P1;PMS_P2;Temp;Humidity;BMP_temperature;BMP_pressure;BME280_temperature;BME280_humidity;BME280_pressure;Samples;Min_cycle;Max_cycle;Signal;HPM_P1;HPM_P2
2022/08/09 00:01:31;;;;;;;3.95;1.45;;;;;;;21.94;40.62;98858.94;5035841;28;20032;-49
2022/08/09 00:03:57;;;;;;;11.90;2.30;;;;;;;21.84;40.49;98854.41;5053870;28;20013;-48
2022/08/09 00:06:23;;;;;;;3.08;1.38;;;;;;;21.84;42.27;98853.63;5053742;28;20032;-48
2022/08/09 00:08:49;;;;;;;7.53;2.25;;;;;;;21.68;45.33;98863.53;5053694;28;20025;-47
2022/08/09 00:11:16;;;;;;;5.68;2.28;;;;;;;21.06;47.44;98858.13;5053643;28;20521;-46
2022/08/09 00:13:42;;;;;;;10.68;9.60;;;;;;;20.37;48.99;98855.78;5053621;28;20017;-47
2022/08/09 00:16:08;;;;;;;4.85;2.70;;;;;;;19.80;50.58;98859.97;5053497;28;20032;-49
2022/08/09 00:18:34;;;;;;;7.90;3.30;;;;;;;19.36;51.53;98861.75;5035547;28;20501;-49
2022/08/09 00:21:01;;;;;;;6.22;2.50;;;;;;;19.17;51.68;98855.19;5053498;28;20017;-49
2022/08/09 00:23:27;;;;;;;8.73;6.15;;;;;;;19.14;51.47;98859.16;5053383;28;20025;-49
2022/08/09 00:25:53;;;;;;;14.77;13.40;;;;;;;19.16;51.18;98853.59;5053354;28;20139;-47
2022/08/09 00:28:18;;;;;;;7.20;4.60;;;;;;;19.26;50.80;98861.69;5038844;28;20041;-47
2022/08/09 00:30:44;;;;;;;10.07;6.95;;;;;;;19.41;49.62;98862.84;5035298;28;20036;-46
2022/08/09 00:33:10;;;;;;;3.80;3.42;;;;;;;19.51;49.20;98862.94;5053212;28;20112;-47
2022/08/09 00:35:35;;;;;;;7.13;2.15;;;;;;;19.55;49.10;98864.81;5035224;28;20092;-47
2022/08/09 00:38:01;;;;;;;6.93;2.92;;;;;;;19.62;48.88;98861.16;5053102;28;20128;-47
2022/08/09 00:40:26;;;;;;;5.85;2.60;;;;;;;19.69;48.48;98869.72;5053350;28;20033;-49
2022/08/09 00:42:52;;;;;;;6.22;1.80;;;;;;;19.82;47.90;98868.50;5053029;28;20028;-49
2022/08/09 00:45:17;;;;;;;5.22;1.70;;;;;;;19.94;47.64;98869.13;5035102;28;20079;-49
2022/08/09 00:47:43;;;;;;;3.25;1.40;;;;;;;19.99;47.61;98873.69;5052915;28;20033;-49
2022/08/09 00:50:09;;;;;;;3.55;1.33;;;;;;;19.95;49.13;98871.53;5052187;28;20013;-49
2022/08/09 00:52:36;;;;;;;6.72;1.73;;;;;;;19.73;50.68;98865.53;5052833;28;20027;-49
2022/08/09 00:55:02;;;;;;;5.05;1.73;;;;;;;19.54;51.47;98870.44;5052869;28;20107;-48
2022/08/09 00:57:31;;;;;;;5.30;1.80;;;;;;;19.45;51.36;98875.41;5034782;28;20036;-48
2022/08/09 00:59:57;;;;;;;4.35;1.70;;;;;;;19.56;50.81;98878.97;5053019;28;20025;-48
2022/08/09 01:02:28;;;;;;;5.60;1.30;;;;;;;19.66;50.15;98876.38;5052641;28;20170;-49
2022/08/09 01:05:21;;;;;;;5.57;1.50;;;;;;;19.85;49.37;98879.47;5052704;28;20542;-48
2022/08/09 01:08:02;;;;;;;4.00;1.50;;;;;;;20.05;47.83;98884.13;5052650;28;20051;-48
2022/08/09 01:10:55;;;;;;;3.42;1.33;;;;;;;20.06;47.17;98876.91;5052547;28;20024;-49
2022/08/09 01:14:02;;;;;;;2.58;1.30;;;;;;;20.05;46.74;98881.44;5034595;28;20029;-49
2022/08/09 01:16:38;;;;;;;2.88;1.25;;;;;;;20.03;46.19;98878.25;5007965;28;20044;-48
2022/08/09 01:19:42;;;;;;;2.67;1.58;;;;;;;19.99;46.13;98882.47;5034562;28;20111;-48
2022/08/09 01:22:29;;;;;;;3.00;1.17;;;;;;;19.90;46.15;98887.50;5023204;28;20028;-49
2022/08/09 01:25:10;;;;;;;3.25;2.60;;;;;;;19.86;46.35;98882.91;5052266;28;20151;-49
2022/08/09 01:27:37;;;;;;;4.40;1.75;;;;;;;19.78;46.51;98880.72;5035174;28;20399;-49
2022/08/09 01:30:06;;;;;;;3.30;1.35;;;;;;;19.75;46.60;98877.53;5072183;28;20028;-49
2022/08/09 01:32:44;;;;;;;1.85;1.35;;;;;;;19.78;46.64;98878.06;5072095;28;20031;-49
2022/08/09 01:35:21;;;;;;;5.35;1.50;;;;;;;19.83;46.29;98878.91;5072133;28;20032;-48
2022/08/09 01:37:50;;;;;;;4.38;1.30;;;;;;;19.83;45.86;98880.78;5072294;28;20033;-49
2022/08/09 01:40:18;;;;;;;4.38;1.25;;;;;;;19.83;46.03;98884.25;5072275;28;20020;-49
2022/08/09 01:42:46;;;;;;;4.95;1.55;;;;;;;20.10;45.83;98886.00;5071993;28;20028;-49
2022/08/09 01:45:12;;;;;;;2.85;1.20;;;;;;;20.22;45.06;98891.13;5071928;28;20029;-49
2022/08/09 01:47:41;;;;;;;6.10;1.88;;;;;;;20.10;45.17;98889.50;5053907;28;20028;-48
2022/08/09 01:50:09;;;;;;;2.35;1.42;;;;;;;19.97;45.46;98889.13;5053826;28;20112;-49
2022/08/09 01:52:38;;;;;;;4.47;1.35;;;;;;;19.88;45.64;98878.97;5053813;28;20032;-49
2022/08/09 01:55:05;;;;;;;2.33;1.45;;;;;;;19.79;46.05;98887.69;5053877;28;20043;-49
2022/08/09 01:57:41;;;;;;;4.90;1.48;;;;;;;19.68;46.17;98884.91;5071748;28;20051;-49
2022/08/09 02:00:09;;;;;;;3.40;1.40;;;;;;;19.70;46.10;98888.13;5053783;28;20127;-49
2022/08/09 02:02:42;;;;;;;4.13;1.50;;;;;;;19.69;46.15;98889.16;5071723;28;20020;-49
2022/08/09 02:05:11;;;;;;;4.20;1.40;;;;;;;19.72;46.43;98887.91;5071734;28;20024;-48
2022/08/09 02:07:48;;;;;;;4.15;1.30;;;;;;;19.85;46.13;98879.47;5071657;28;20021;-49
2022/08/09 02:10:20;;;;;;;5.55;1.60;;;;;;;19.83;46.10;98883.44;5071717;28;20043;-48
2022/08/09 02:12:48;;;;;;;4.20;1.48;;;;;;;19.78;45.81;98884.22;5071715;28;20044;-48
2022/08/09 02:15:17;;;;;;;4.07;1.42;;;;;;;19.63;46.16;98886.72;5053665;28;20115;-49
2022/08/09 02:17:45;;;;;;;4.00;1.30;;;;;;;19.49;46.63;98883.69;5071592;28;20020;-49
2022/08/09 02:20:11;;;;;;;3.38;1.27;;;;;;;19.53;46.68;98892.78;5053547;28;20027;-49
2022/08/09 02:22:47;;;;;;;3.20;1.30;;;;;;;19.65;46.46;98896.06;5053553;28;20107;-49
2022/08/09 02:25:27;;;;;;;5.63;2.55;;;;;;;19.72;46.48;98896.69;5071576;28;20060;-49
2022/08/09 02:28:04;;;;;;;2.72;1.13;;;;;;;19.72;46.28;98901.22;5071282;28;20044;-49
2022/08/09 02:30:38;;;;;;;6.13;1.63;;;;;;;19.63;46.42;98903.50;5071565;28;20040;-48
2022/08/09 02:33:05;;;;;;;5.93;1.70;;;;;;;19.60;46.43;98901.34;5054825;28;20421;-49
2022/08/09 02:35:36;;;;;;;4.88;1.50;;;;;;;19.68;46.23;98905.38;5071473;28;20025;-48
2022/08/09 02:38:04;;;;;;;3.30;1.42;;;;;;;19.61;46.31;98897.63;5071282;28;20020;-49
2022/08/09 02:40:33;;;;;;;5.47;1.70;;;;;;;19.55;46.50;98901.31;5053365;28;20048;-49
2022/08/09 02:43:01;;;;;;;4.03;1.92;;;;;;;19.50;46.71;98898.63;5071430;28;20027;-48
2022/08/09 02:45:31;;;;;;;5.35;1.75;;;;;;;19.43;46.72;98896.16;5053366;28;20031;-49
2022/08/09 02:48:02;;;;;;;5.80;1.60;;;;;;;19.38;47.19;98900.59;5071610;28;20036;-48
2022/08/09 02:50:38;;;;;;;2.70;1.60;;;;;;;19.38;47.41;98897.94;5053338;28;20128;-49
2022/08/09 02:53:30;;;;;;;4.22;1.50;;;;;;;19.32;47.46;98903.25;5053324;28;20086;-49
2022/08/09 02:55:58;;;;;;;7.63;2.38;;;;;;;19.28;47.57;98902.13;5071124;28;20440;-49
2022/08/09 02:58:30;;;;;;;5.45;1.70;;;;;;;19.27;47.83;98905.03;5071197;28;20107;-49
2022/08/09 03:00:57;;;;;;;4.38;1.77;;;;;;;19.30;47.67;98902.69;5071186;28;20112;-48
2022/08/09 03:03:24;;;;;;;5.28;1.50;;;;;;;19.39;47.40;98897.69;5071222;28;20571;-47
2022/08/09 03:05:52;;;;;;;3.75;1.60;;;;;;;19.35;47.38;98893.94;5071180;28;20012;-49
2022/08/09 03:08:20;;;;;;;2.85;1.67;;;;;;;19.32;47.57;98889.94;5053099;28;20502;-49
2022/08/09 03:10:48;;;;;;;5.20;1.33;;;;;;;19.34;47.38;98898.47;5071106;28;20107;-48
2022/08/09 03:13:16;;;;;;;4.57;1.55;;;;;;;19.19;47.56;98895.66;5054362;28;20085;-49
2022/08/09 03:15:43;;;;;;;1.33;1.17;;;;;;;19.08;47.88;98905.41;5074703;28;20494;-48
2022/08/09 03:18:10;;;;;;;3.88;1.25;;;;;;;18.98;47.97;98902.63;5074754;28;20036;-49
2022/08/09 03:20:41;;;;;;;2.38;1.50;;;;;;;18.87;48.30;98904.38;5057141;28;20094;-49
2022/08/09 03:23:08;;;;;;;4.25;1.45;;;;;;;18.81;48.37;98902.69;5074606;28;20422;-49
2022/08/09 03:25:35;;;;;;;3.25;1.60;;;;;;;18.77;48.32;98901.56;5074534;28;20031;-49
2022/08/09 03:28:02;;;;;;;3.05;1.85;;;;;;;18.79;48.44;98902.16;5074218;28;20475;-49
2022/08/09 03:30:30;;;;;;;5.22;1.70;;;;;;;18.74;49.02;98902.06;5074361;28;20052;-49
2022/08/09 03:32:57;;;;;;;7.45;1.52;;;;;;;18.66;48.82;98905.16;5056395;28;20024;-48
2022/08/09 03:35:24;;;;;;;3.30;1.52;;;;;;;18.68;49.25;98913.69;5056348;28;20183;-48
2022/08/09 03:37:51;;;;;;;2.55;1.60;;;;;;;18.70;48.93;98917.72;5074248;28;20031;-48
2022/08/09 03:40:18;;;;;;;6.78;1.90;;;;;;;18.73;48.97;98919.06;5056460;28;20444;-47
2022/08/09 03:42:45;;;;;;;1.58;1.08;;;;;;;18.72;48.69;98912.94;5074206;28;20032;-48
2022/08/09 03:45:10;;;;;;;3.40;1.40;;;;;;;18.71;48.77;98918.50;5056168;28;20029;-48
2022/08/09 03:47:36;;;;;;;3.65;1.58;;;;;;;18.61;49.03;98916.53;5056139;28;20035;-48
2022/08/09 03:50:07;;;;;;;15.75;2.22;;;;;;;18.51;49.43;98913.75;5039536;28;20091;-49
2022/08/09 03:52:36;;;;;;;7.47;1.77;;;;;;;18.49;49.46;98915.84;5074365;28;20039;-49
2022/08/09 03:55:04;;;;;;;3.53;1.40;;;;;;;18.44;49.68;98911.28;5073957;28;20070;-48
2022/08/09 03:57:30;;;;;;;4.07;1.50;;;;;;;18.40;49.96;98912.81;5055858;28;20502;-49
2022/08/09 03:59:57;;;;;;;4.57;1.67;;;;;;;18.38;49.88;98920.22;5055883;28;20024;-48
2022/08/09 04:02:25;;;;;;;6.03;1.73;;;;;;;18.35;49.87;98926.00;5055884;28;20035;-49
2022/08/09 04:04:51;;;;;;;4.82;1.40;;;;;;;18.30;50.33;98924.09;5073793;28;20090;-49
2022/08/09 04:07:17;;;;;;;5.35;2.05;;;;;;;18.25;50.29;98926.72;5073703;28;20490;-48
2022/08/09 04:09:42;;;;;;;9.43;2.22;;;;;;;18.18;50.34;98923.41;5055765;28;20032;-48
2022/08/09 04:12:08;;;;;;;4.53;1.95;;;;;;;18.19;50.31;98921.53;5073684;28;20020;-48
2022/08/09 04:14:34;;;;;;;4.22;1.85;;;;;;;18.15;50.40;98924.72;5073588;28;20024;-48
2022/08/09 04:17:00;;;;;;;2.33;1.88;;;;;;;18.07;50.72;98927.78;5073505;28;20048;-48
2022/08/09 04:19:25;;;;;;;6.32;2.45;;;;;;;18.03;51.10;98925.81;5073519;28;20028;-48
2022/08/09 04:21:51;;;;;;;3.42;2.58;;;;;;;17.98;51.04;98929.22;5073466;28;20482;-48
2022/08/09 04:24:16;;;;;;;6.40;2.38;;;;;;;18.00;51.00;98932.44;5072501;28;20486;-48
2022/08/09 04:26:42;;;;;;;2.50;1.58;;;;;;;18.01;50.86;98936.72;5055170;28;20025;-48
2022/08/09 04:29:08;;;;;;;7.47;1.95;;;;;;;18.05;51.07;98934.34;5055104;28;20417;-48
2022/08/09 04:31:34;;;;;;;5.50;1.58;;;;;;;18.10;50.83;98937.91;5073281;28;20036;-48
2022/08/09 04:34:00;;;;;;;2.75;1.70;;;;;;;18.10;50.75;98939.75;5073257;28;20021;-48
2022/08/09 04:36:29;;;;;;;5.68;2.60;;;;;;;18.02;51.05;98946.28;5073358;28;20025;-48
2022/08/09 04:38:57;;;;;;;4.43;1.63;;;;;;;18.03;51.09;98945.25;5055164;28;20421;-48
2022/08/09 04:41:27;;;;;;;4.13;1.70;;;;;;;18.08;50.78;98944.50;5073127;28;20025;-49
2022/08/09 04:43:53;;;;;;;3.63;1.58;;;;;;;18.12;50.85;98949.09;5073345;28;20390;-48
2022/08/09 04:46:19;;;;;;;4.50;1.77;;;;;;;18.18;50.82;98949.97;5073003;28;20035;-49
2022/08/09 04:48:45;;;;;;;4.88;1.98;;;;;;;18.17;50.75;98957.13;5073026;28;20024;-49
2022/08/09 04:51:11;;;;;;;4.13;2.10;;;;;;;18.17;50.56;98953.69;5072913;28;20050;-49
2022/08/09 04:53:38;;;;;;;15.55;3.75;;;;;;;18.29;50.75;98964.19;5054999;28;20027;-49
2022/08/09 04:56:05;;;;;;;6.22;1.80;;;;;;;18.45;50.37;98963.38;5072766;28;20029;-49
2022/08/09 04:58:31;;;;;;;5.80;1.98;;;;;;;18.76;49.76;98967.25;5072722;28;20085;-48
2022/08/09 05:00:56;;;;;;;8.00;2.20;;;;;;;19.63;48.01;98975.38;5054806;28;20024;-49
2022/08/09 05:03:22;;;;;;;5.75;2.05;;;;;;;20.40;45.89;98970.66;5072838;28;20521;-46
2022/08/09 05:05:48;;;;;;;3.70;1.35;;;;;;;21.00;44.24;98967.78;5054810;28;20036;-47
2022/08/09 05:08:14;;;;;;;6.55;2.53;;;;;;;21.65;42.94;98977.06;5054645;28;20032;-47
2022/08/09 05:10:40;;;;;;;6.38;2.47;;;;;;;22.34;41.45;98973.03;5072475;28;20021;-47
2022/08/09 05:13:06;;;;;;;29.33;3.60;;;;;;;22.96;40.32;98980.88;5038103;28;20490;-47
2022/08/09 05:15:34;;;;;;;13.50;2.50;;;;;;;23.49;38.83;98978.47;5054428;28;20027;-47
2022/08/09 05:18:00;;;;;;;6.93;1.95;;;;;;;23.85;37.89;98975.56;5054396;28;20035;-47
2022/08/09 05:20:27;;;;;;;6.70;1.92;;;;;;;24.21;37.20;98980.59;5072300;28;20125;-47
2022/08/09 05:22:53;;;;;;;8.30;2.17;;;;;;;24.32;36.63;98979.41;5054306;28;20016;-47
2022/08/09 05:25:22;;;;;;;7.75;2.03;;;;;;;24.42;36.29;98983.06;5072218;28;20029;-47
2022/08/09 05:27:49;;;;;;;10.05;2.20;;;;;;;24.52;36.47;98983.78;5072007;28;20387;-47
2022/08/09 05:30:16;;;;;;;14.18;2.60;;;;;;;24.51;36.40;98979.53;5054592;28;20418;-48
2022/08/09 05:32:42;;;;;;;18.35;2.95;;;;;;;24.37;36.85;98978.56;5072138;28;20052;-49
2022/08/09 05:35:08;;;;;;;32.15;3.95;;;;;;;24.35;36.66;98979.91;5054036;28;20521;-49
2022/08/09 05:37:34;;;;;;;19.45;2.95;;;;;;;24.44;36.72;98981.69;5071798;28;20028;-49
2022/08/09 05:40:00;;;;;;;6.43;1.70;;;;;;;24.94;35.89;98980.66;5072064;28;20035;-49
2022/08/09 05:42:25;;;;;;;16.42;3.00;;;;;;;25.67;34.69;98982.84;5053953;28;20031;-49
2022/08/09 05:44:53;;;;;;;16.23;3.25;;;;;;;26.24;33.52;98976.56;5072009;28;20479;-47
2022/08/09 05:47:24;;;;;;;6.53;2.20;;;;;;;26.68;32.78;98975.22;5053964;28;20036;-48
2022/08/09 05:49:52;;;;;;;26.17;3.17;;;;;;;27.31;31.77;98981.78;5053941;28;20509;-48
2022/08/09 05:52:20;;;;;;;17.83;5.75;;;;;;;28.00;30.77;98978.81;5071825;28;20459;-48
2022/08/09 05:54:46;;;;;;;15.25;2.45;;;;;;;28.58;30.18;98984.34;5053838;28;20089;-49
2022/08/09 05:57:12;;;;;;;9.65;1.92;;;;;;;29.14;29.04;98981.97;5071667;28;20398;-49
2022/08/09 05:59:37;;;;;;;14.55;2.42;;;;;;;29.68;28.12;98988.66;5071822;28;20027;-49
2022/08/09 06:02:03;;;;;;;10.27;2.10;;;;;;;30.25;27.19;98990.31;5071707;28;20021;-49
2022/08/09 06:04:29;;;;;;;11.18;2.20;;;;;;;30.77;26.38;98989.31;5053728;28;20028;-49
2022/08/09 06:06:54;;;;;;;14.13;2.00;;;;;;;31.38;26.04;98999.00;5071746;28;20078;-48
2022/08/09 06:09:20;;;;;;;9.68;2.20;;;;;;;31.76;24.94;98993.44;5053723;28;20111;-50
2022/08/09 06:11:46;;;;;;;13.68;2.15;;;;;;;32.08;24.90;98993.78;5037036;28;20017;-49
2022/08/09 06:14:12;;;;;;;5.28;2.00;;;;;;;32.37;24.13;98997.44;5071643;28;20453;-49
2022/08/09 06:16:37;;;;;;;11.05;1.90;;;;;;;32.66;24.46;99001.91;5053513;28;20056;-49
2022/08/09 06:19:04;;;;;;;9.32;1.90;;;;;;;33.19;23.94;99002.00;5053612;28;20793;-49
2022/08/09 06:21:30;;;;;;;18.00;2.22;;;;;;;33.91;22.58;99006.75;5053534;28;20020;-50
2022/08/09 06:23:55;;;;;;;17.17;3.00;;;;;;;34.58;21.89;99007.69;5071600;28;20403;-50
2022/08/09 06:26:22;;;;;;;36.97;4.43;;;;;;;35.30;21.10;99005.81;5036898;28;20024;-50
2022/08/09 06:28:55;;;;;;;25.05;3.03;;;;;;;35.88;20.82;99010.47;5053228;28;20049;-50
2022/08/09 06:31:23;;;;;;;10.93;2.38;;;;;;;36.22;20.33;99008.75;5071515;28;20024;-50
2022/08/09 06:33:49;;;;;;;17.23;2.10;;;;;;;36.52;20.30;99010.81;5053523;28;20037;-49
2022/08/09 06:36:14;;;;;;;35.63;4.47;;;;;;;36.63;19.85;99000.88;5053623;28;20445;-50
2022/08/09 06:38:40;;;;;;;27.50;3.83;;;;;;;36.70;19.64;99000.19;5071281;28;20478;-49
2022/08/09 06:41:06;;;;;;;30.02;3.63;;;;;;;36.52;19.47;99016.28;5071416;28;20021;-49
2022/08/09 06:43:31;;;;;;;35.10;4.15;;;;;;;36.32;19.46;99015.56;5071580;28;20025;-49
2022/08/09 06:45:57;;;;;;;22.50;2.97;;;;;;;35.52;20.29;99021.50;5071312;28;20104;-48
2022/08/09 06:48:23;;;;;;;18.00;2.40;;;;;;;35.57;20.56;99023.13;5072932;28;20103;-48
2022/08/09 06:50:49;;;;;;;11.80;2.53;;;;;;;36.30;19.66;99017.88;5075195;28;20021;-47
2022/08/09 06:53:15;;;;;;;20.13;3.47;;;;;;;36.82;19.46;99021.06;5075114;28;20025;-47
2022/08/09 06:55:43;;;;;;;18.40;2.45;;;;;;;37.24;18.70;99015.44;5075112;28;20017;-48
2022/08/09 06:58:09;;;;;;;10.45;2.53;;;;;;;37.71;18.64;99016.81;5056984;28;20454;-50
2022/08/09 07:00:35;;;;;;;26.30;3.70;;;;;;;38.12;18.04;99021.56;5056986;28;20094;-47
2022/08/09 07:03:02;;;;;;;13.27;2.22;;;;;;;38.40;17.62;99025.72;5074929;28;20031;-48
2022/08/09 07:05:30;;;;;;;9.35;1.88;;;;;;;38.43;17.76;99024.94;5056980;28;20120;-48
2022/08/09 07:07:56;;;;;;;10.35;2.22;;;;;;;38.27;18.21;99022.44;5074833;28;20024;-47
2022/08/09 07:10:22;;;;;;;9.90;2.28;;;;;;;38.13;17.43;99025.84;5074731;28;20617;-48
2022/08/09 07:12:49;;;;;;;9.70;2.00;;;;;;;37.88;17.96;99025.59;5056826;28;20062;-48
2022/08/09 07:15:15;;;;;;;8.77;2.38;;;;;;;37.65;18.60;99022.97;5056762;28;20033;-47
2022/08/09 07:17:41;;;;;;;12.02;1.48;;;;;;;37.60;18.75;99037.03;5056571;28;20486;-47
2022/08/09 07:20:07;;;;;;;7.20;1.60;;;;;;;37.63;18.50;99028.03;5056708;28;20020;-48
2022/08/09 07:22:33;;;;;;;9.90;1.50;;;;;;;37.51;18.41;99035.34;5074663;28;20021;-50
2022/08/09 07:24:58;;;;;;;6.97;2.40;;;;;;;37.47;18.47;99039.97;5056571;28;20509;-50
2022/08/09 07:27:26;;;;;;;19.02;2.33;;;;;;;37.61;18.34;99041.31;5056418;28;20561;-49
2022/08/09 07:29:53;;;;;;;4.40;1.30;;;;;;;37.57;18.56;99049.50;5074302;28;20373;-48
2022/08/09 07:32:19;;;;;;;12.88;2.22;;;;;;;37.95;18.67;99042.91;5074400;28;20479;-48
2022/08/09 07:34:44;;;;;;;10.85;1.50;;;;;;;38.70;17.53;99040.06;5056392;28;20043;-48
2022/08/09 07:37:10;;;;;;;7.72;2.55;;;;;;;39.32;16.99;99041.22;5056208;28;20060;-50
2022/08/09 07:39:36;;;;;;;5.85;1.70;;;;;;;39.86;16.07;99046.94;5074314;28;20043;-50
2022/08/09 07:42:01;;;;;;;11.00;2.00;;;;;;;40.38;15.94;99052.97;5056172;28;20031;-50
2022/08/09 07:44:27;;;;;;;9.63;1.52;;;;;;;40.83;15.45;99049.81;5056232;28;20090;-49
2022/08/09 07:46:53;;;;;;;13.48;1.95;;;;;;;41.19;15.51;99041.50;5074175;28;20028;-51
2022/08/09 07:49:18;;;;;;;9.70;2.40;;;;;;;41.43;15.10;99040.59;5074068;28;20020;-49
2022/08/09 07:51:44;;;;;;;13.63;3.20;;;;;;;41.70;14.86;99040.13;5074092;28;20082;-50
2022/08/09 07:54:10;;;;;;;17.55;2.78;;;;;;;41.89;14.44;99047.09;5074022;28;20017;-50
2022/08/09 07:56:37;;;;;;;20.48;2.92;;;;;;;42.07;14.30;99042.28;5055902;28;20461;-51
2022/08/09 07:59:03;;;;;;;12.05;2.28;;;;;;;42.42;13.93;99036.88;5073817;28;20494;-49
2022/08/09 08:01:28;;;;;;;19.90;3.58;;;;;;;42.48;14.39;99032.50;5055972;28;20040;-49
2022/08/09 08:03:54;;;;;;;14.75;2.28;;;;;;;42.31;13.91;99048.00;5055759;28;20146;-50
2022/08/09 08:06:20;;;;;;;19.00;3.30;;;;;;;41.99;14.31;99039.94;5073808;28;20047;-49
2022/08/09 08:08:46;;;;;;;8.50;1.90;;;;;;;41.84;14.45;99042.78;5073797;28;20020;-50
2022/08/09 08:11:12;;;;;;;6.40;1.42;;;;;;;41.51;14.55;99035.84;5073659;28;20074;-50
2022/08/09 08:13:38;;;;;;;14.40;1.55;;;;;;;41.30;15.10;99036.75;5073705;28;20108;-49
2022/08/09 08:16:04;;;;;;;13.73;2.03;;;;;;;41.09;14.82;99035.59;5055603;28;20790;-48
2022/08/09 08:18:29;;;;;;;12.05;2.00;;;;;;;40.77;15.13;99043.94;5073505;28;20021;-48
2022/08/09 08:20:55;;;;;;;10.00;1.52;;;;;;;40.22;15.63;99039.56;5055475;28;20032;-50
2022/08/09 08:23:21;;;;;;;9.00;1.90;;;;;;;40.43;15.45;99043.53;5073794;28;20091;-49
2022/08/09 08:25:47;;;;;;;7.47;1.95;;;;;;;40.63;15.51;99039.22;5055625;28;20020;-49
2022/08/09 08:28:14;;;;;;;6.93;1.42;;;;;;;40.57;15.45;99040.78;5073185;28;20071;-49
2022/08/09 08:30:40;;;;;;;12.95;2.30;;;;;;;40.64;15.50;99038.00;5073428;28;20398;-48
2022/08/09 08:33:07;;;;;;;6.03;1.50;;;;;;;41.04;14.72;99029.72;5073505;28;20355;-49
2022/08/09 08:35:34;;;;;;;14.45;2.08;;;;;;;41.57;14.78;99030.72;5073242;28;20021;-51
2022/08/09 08:38:00;;;;;;;11.48;1.98;;;;;;;41.93;14.25;99031.31;5055132;28;20101;-49
2022/08/09 08:40:26;;;;;;;4.93;1.35;;;;;;;42.21;13.70;99033.09;5073679;28;20378;-49
2022/08/09 08:42:52;;;;;;;3.88;1.55;;;;;;;42.35;13.91;99040.47;5073056;28;20425;-49
2022/08/09 08:45:41;;;;;;;21.95;3.00;;;;;;;42.45;13.97;99027.81;5073012;28;20056;-48
2022/08/09 08:48:08;;;;;;;11.30;1.50;;;;;;;42.91;13.63;99031.34;5073044;28;20028;-49
2022/08/09 08:50:34;;;;;;;9.35;1.88;;;;;;;43.14;13.51;99025.16;5072953;28;20414;-49
2022/08/09 08:53:00;;;;;;;6.25;1.77;;;;;;;43.41;12.75;99031.56;5073166;28;20025;-48
2022/08/09 08:55:27;;;;;;;13.05;1.90;;;;;;;43.41;12.98;99023.28;5072838;28;20028;-49
2022/08/09 08:57:54;;;;;;;10.82;1.60;;;;;;;43.48;12.80;99027.91;5072695;28;20556;-49
2022/08/09 09:00:20;;;;;;;6.95;1.98;;;;;;;43.83;13.22;99034.97;5072780;28;20055;-48
2022/08/09 09:02:48;;;;;;;15.45;3.03;;;;;;;44.18;12.55;99027.34;5072731;28;20567;-49
2022/08/09 09:05:18;;;;;;;8.30;1.77;;;;;;;44.47;12.28;99030.47;5072872;28;20399;-48
2022/08/09 09:07:49;;;;;;;13.68;1.80;;;;;;;44.55;12.34;99025.56;5072651;28;20035;-48
2022/08/09 09:10:16;;;;;;;11.15;2.15;;;;;;;44.62;12.52;99030.97;5072171;28;20497;-49
2022/08/09 09:12:44;;;;;;;4.60;1.52;;;;;;;44.39;12.43;99028.19;5072400;28;20021;-50
2022/08/09 09:15:10;;;;;;;15.68;2.90;;;;;;;44.44;12.67;99027.72;5072467;28;20021;-49
2022/08/09 09:17:36;;;;;;;16.10;2.28;;;;;;;44.23;12.42;99026.88;5054492;28;20508;-50
2022/08/09 09:20:11;;;;;;;20.77;3.03;;;;;;;44.40;12.53;99021.47;5072287;28;20025;-49
2022/08/09 09:22:51;;;;;;;9.48;1.70;;;;;;;44.53;12.69;99027.97;5054464;28;20020;-50
2022/08/09 09:25:41;;;;;;;44.10;4.93;;;;;;;44.44;12.65;99028.50;5072267;28;20573;-50
2022/08/09 09:28:11;;;;;;;13.30;2.20;;;;;;;43.99;13.25;99019.72;5072197;28;20048;-50
2022/08/09 09:30:56;;;;;;;19.27;3.25;;;;;;;43.54;13.63;99017.19;5072208;28;20020;-49
2022/08/09 09:33:36;;;;;;;9.15;1.90;;;;;;;42.96;13.91;99022.59;5054264;28;20025;-49
2022/08/09 09:36:04;;;;;;;9.50;1.88;;;;;;;42.78;14.02;99014.50;5054236;28;20490;-48
2022/08/09 09:38:41;;;;;;;15.23;3.35;;;;;;;42.80;14.13;99015.63;5072112;28;20028;-47
2022/08/09 09:41:07;;;;;;;13.70;1.88;;;;;;;42.91;14.48;99017.56;5054238;28;20383;-48
2022/08/09 09:43:33;;;;;;;27.20;3.88;;;;;;;43.19;14.07;99010.91;5072103;28;20115;-48
2022/08/09 09:46:01;;;;;;;38.55;5.90;;;;;;;43.51;14.17;99009.72;5071975;28;20028;-49
2022/08/09 09:48:28;;;;;;;9.07;2.47;;;;;;;43.75;13.67;99011.41;5071952;28;20097;-49
2022/08/09 09:50:54;;;;;;;15.18;6.50;;;;;;;43.63;13.91;99007.19;5053897;28;20016;-48
2022/08/09 09:53:22;;;;;;;13.65;2.72;;;;;;;43.71;13.90;99005.13;5071917;28;20024;-49
2022/08/09 09:55:58;;;;;;;11.20;1.90;;;;;;;44.10;13.28;99006.53;5053845;28;20028;-49
2022/08/09 09:58:25;;;;;;;13.32;1.60;;;;;;;44.64;13.06;99006.41;5071999;28;20020;-48
2022/08/09 10:00:55;;;;;;;12.25;2.28;;;;;;;44.42;13.12;99002.44;5072024;28;20028;-50
2022/08/09 10:03:40;;;;;;;17.15;2.75;;;;;;;44.28;13.41;99004.25;5053881;28;20064;-49
2022/08/09 10:06:06;;;;;;;5.03;1.77;;;;;;;44.14;13.17;99007.25;5071722;28;20017;-49
2022/08/09 10:08:32;;;;;;;13.27;2.67;;;;;;;44.83;13.04;98995.78;5071778;28;20032;-49
2022/08/09 10:10:58;;;;;;;12.15;2.00;;;;;;;44.87;12.95;98993.75;5071915;28;20111;-49
2022/08/09 10:13:35;;;;;;;6.25;1.65;;;;;;;44.55;13.19;99000.63;5071964;28;20401;-50
2022/08/09 10:16:01;;;;;;;5.43;1.55;;;;;;;45.17;12.79;99008.59;5071762;28;20390;-49
2022/08/09 10:18:26;;;;;;;18.15;7.38;;;;;;;45.62;12.22;98988.59;5071613;28;20029;-48
2022/08/09 10:20:52;;;;;;;28.23;4.18;;;;;;;45.28;12.49;98988.97;5071616;28;20017;-50
2022/08/09 10:23:21;;;;;;;20.98;4.57;;;;;;;44.65;13.00;98985.84;5073181;28;20021;-49
2022/08/09 10:25:49;;;;;;;5.68;1.95;;;;;;;43.51;14.20;98993.94;5075717;28;20021;-49
2022/08/09 10:28:15;;;;;;;10.27;1.63;;;;;;;43.77;13.45;98984.09;5075505;28;20422;-48
2022/08/09 10:30:41;;;;;;;9.45;2.03;;;;;;;44.50;13.35;98986.53;5075590;28;20494;-50
2022/08/09 10:33:07;;;;;;;5.10;2.00;;;;;;;44.89;13.17;98982.25;5057614;28;20025;-50
2022/08/09 10:35:33;;;;;;;13.95;3.03;;;;;;;44.97;13.33;98989.19;5057557;28;20031;-50
2022/08/09 10:38:02;;;;;;;6.63;1.50;;;;;;;44.86;13.25;98983.84;5075421;28;20103;-49
2022/08/09 10:40:28;;;;;;;4.95;1.55;;;;;;;45.28;12.74;98981.47;5075472;28;20513;-47
2022/08/09 10:42:54;;;;;;;6.40;1.63;;;;;;;45.60;12.60;98977.16;5057373;28;20029;-49
2022/08/09 10:45:21;;;;;;;39.28;35.47;;;;;;;45.76;12.68;98973.66;5075372;28;20017;-50
2022/08/09 10:48:15;;;;;;;10.10;3.40;;;;;;;45.24;12.82;98980.72;5057593;28;20090;-50
2022/08/09 10:51:13;;;;;;;4.65;1.50;;;;;;;45.10;12.58;98969.94;5075147;28;20028;-49
2022/08/09 10:54:04;;;;;;;3.65;1.40;;;;;;;45.52;12.01;98971.03;5057337;28;20395;-49
2022/08/09 10:56:38;;;;;;;17.52;2.70;;;;;;;44.48;13.12;98964.78;5057178;28;20032;-48
2022/08/09 10:59:34;;;;;;;8.07;3.65;;;;;;;43.81;13.38;98962.72;5075342;28;20024;-47
2022/08/09 11:02:01;;;;;;;6.88;3.28;;;;;;;43.90;13.38;98961.41;5058466;28;20486;-49
2022/08/09 11:04:28;;;;;;;7.45;3.30;;;;;;;44.00;12.80;98957.66;5074897;28;20034;-49
2022/08/09 11:06:57;;;;;;;8.77;4.28;;;;;;;43.58;13.10;98954.34;5074908;28;20051;-49
2022/08/09 11:09:42;;;;;;;6.13;1.45;;;;;;;44.15;13.23;98961.00;5056886;28;20024;-49
2022/08/09 11:12:24;;;;;;;6.82;1.52;;;;;;;45.02;12.33;98958.25;5074700;28;20498;-49
2022/08/09 11:14:55;;;;;;;11.85;4.25;;;;;;;45.25;12.39;98957.34;5074784;28;20021;-49
2022/08/09 11:17:21;;;;;;;13.75;2.55;;;;;;;44.43;12.57;98956.94;5074698;28;20026;-49
2022/08/09 11:19:57;;;;;;;15.05;3.75;;;;;;;44.23;12.78;98954.13;5074581;28;20027;-50
2022/08/09 11:22:45;;;;;;;13.98;2.50;;;;;;;44.47;12.86;98952.94;5074711;28;20116;-48
2022/08/09 11:25:17;;;;;;;95.18;9.80;;;;;;;44.65;13.18;98946.28;5074528;28;20022;-49
2022/08/09 11:27:55;;;;;;;15.60;2.83;;;;;;;44.20;12.87;98953.00;5074259;28;20027;-49
2022/08/09 11:30:26;;;;;;;5.18;1.40;;;;;;;44.27;12.78;98949.31;5074533;28;20605;-49
2022/08/09 11:33:17;;;;;;;19.27;2.58;;;;;;;44.52;12.79;98945.34;5074448;28;20025;-49
2022/08/09 11:35:59;;;;;;;10.38;1.73;;;;;;;44.37;12.77;98945.56;5056348;28;20078;-47
2022/08/09 11:38:26;;;;;;;11.63;1.73;;;;;;;44.22;12.88;98938.75;5074402;28;20439;-49